KMIA/MIA METAR and TAF weather

Enter ICAO airport designator
Station Type Date Time Source
KMIA METAR 2021/05/12 04:53 UTC NOAA

KMIA 120453Z 12007KT 10SM FEW025 SCT250 27/22 A3006 RMK AO2 SLP180 T02720222 403220244 $


Station Type Date Time Source
KMIA Decoded METAR 2021/05/12 04:53 UTC NOAA

MIAMI INTERNATIONAL AIRPORT , FL, United States (KMIA) 25-47N 080-19W 8M
May 12, 2021 - 12:53 AM EDT / 2021.05.12 0453 UTC
Wind: from the ESE (120 degrees) at 8 MPH (7 KT):0
Visibility: 10 mile(s):0
Sky conditions: partly cloudy
Temperature: 81.0 F (27.2 C)
Dew Point: 72.0 F (22.2 C)
Relative Humidity: 74%
Pressure (altimeter): 30.06 in. Hg (1017 hPa)
ob: KMIA 120453Z 12007KT 10SM FEW025 SCT250 27/22 A3006 RMK AO2 SLP180 T02720222 403220244
cycle: 5

Station Type Date Time Source
KMIA TAF 2021/05/12 03:15 UTC NOAA

KMIA 120311Z 1203/1306 11007KT P6SM SCT025 SCT250
FM120500 VRB03KT P6SM SCT250
FM121400 14010KT P6SM FEW035 SCT150
FM130100 VRB03KT P6SM FEW035

Example: see airport list